Lebanon, Oklahoma
Current Conditions -  °F | °C
As of 3:55 PM on Friday 28 Nov 2014 (Local Time) from K1F0 Reporting Station
Clear Clear  
Wind Chill: 64°   Ceiling: Unl
Heat Index: 64°   Visibility: 10mi
Dew Point: 45°   Wind: 12mph
Humidity: 49%   Direction: 200°SSW
Pressure: 29.97"   Gusts: 22mph
Location:  33.99°N, 96.91°W
Report Text: K1F0 282155Z AUTO 20010G19KT 10SM CLR 18/07 A2997 RMK AO2
Loading
Personal Weather Stations






























Interactive Weather Map New forecast layout! Learn more

10-Day Weather Forecast

Advertisements
Track Severe Weather on mobile